Choir, Mongolia
Current Conditions -  °F | °C
As of 12:00 AM on Sunday 26 Oct 2014 (Local Time) from ZMUB Reporting Station
Clear Clear  
Wind Chill:   Ceiling: Unl
Heat Index: 10°   Visibility: 6mi
Dew Point:   Wind: 7mph
Humidity: 73%   Direction: 170°S
Pressure: 30.36"   Gusts: NA
Location:  46.45°N, 108.22°E
Report Text: ZMUB 251600Z 17003MPS CAVOK M12/M16 Q1028 NOSIG RMK QFE662.6 70
Loading
Personal Weather Stations






























Interactive Weather Map
Tropical Storm Tracking
New forecast layout! Learn more

10-Day Weather Forecast

Advertisements
Track Severe Weather on mobile